Celebrity Reflection — 9HA3047 — position and weather

sailwx.info

Track history (hours):
 
Tides and Currents Weather Stations Pressure Air Temp Water Temp Dewpoint Dewpoint Depression Visibility Wind Speed Wind Dir Waves Ship Positions

Celebrity Reflection

Last reported at 2017-Sep-19 10:58 UTC. Time now 2017-Sep-19 11:20 UTC.
Position N 36°09' W 005°22'.

Length 319 m; draft 8.6 m.

Type: Passenger vessel. MMSI: 229074000.

Date/timePositionNaut miles runAvg speedWind from/ knotsBaromVisibWave heightAir tempDewpointWater temp
2017-Sep-19 10:58N 36°09' W 005°22'0 0.0
2017-Sep-19 10:29N 36°09' W 005°22'0 0.0
2017-Sep-19 09:58N 36°09' W 005°22'0 0.0
2017-Sep-19 09:28N 36°09' W 005°22'4 8.8
2017-Sep-19 09:00N 36°06' W 005°18'4189.9 140 / 61021.027.0 23.0
2017-Sep-19 08:58N 36°09' W 005°22'0 0.0
2017-Sep-19 08:27N 36°09' W 005°22'0 0.0
2017-Sep-19 08:00N 36°09' W 005°22'0 0.0
2017-Sep-19 07:30N 36°09' W 005°22'0 0.0
2017-Sep-19 07:00N 36°09' W 005°22'0 0.0
2017-Sep-19 06:27N 36°09' W 005°22'4 9.1
2017-Sep-19 06:00N 36°06' W 005°18'449.5 260 / 101017.0 2.2 20.0
2017-Sep-19 05:54N 36°09' W 005°22'0 0.0
2017-Sep-19 05:27N 36°09' W 005°22'0 0.0
2017-Sep-19 04:59N 36°09' W 005°22'0 0.0
2017-Sep-19 04:29N 36°09' W 005°22'0 0.1
2017-Sep-19 04:00N 36°09' W 005°22'2 4.0
2017-Sep-19 03:30N 36°07' W 005°23'4 7.4
2017-Sep-19 03:00N 36°06' W 005°18'4 7.3
2017-Sep-19 02:30N 36°08' W 005°14'4 7.4
2017-Sep-19 02:00N 36°09' W 005°10'18 8.8
2017-Sep-19 00:00N 36°12' W 004°48'20 6.8 250 / 281020.010.8 20.1 17.9
2017-Sep-18 21:00N 36°18' W 004°24'18 4.5 270 / 301017.010.8 20.0
2017-Sep-18 17:00N 36°36' W 004°24'6 3.0 340 / 151017.0 5.4 24.0 18.3
2017-Sep-18 15:00N 36°42' W 004°24'0 0.0 330 / 201012.0 2.2 24.0 18.2
2017-Sep-18 12:00N 36°42' W 004°24'8412.0 310 / 171019.027.0 29.2 18.5
2017-Sep-18 05:00N 36°24' W 002°42'7418.4 250 / 151017.0 5.4 22.1
2017-Sep-18 01:00N 36°54' W 001°18'1315.5 250 / 191017.010.8 23.3 25.3
2017-Sep-18 00:09N 37°03' W 001°07'320.1
2017-Sep-18 00:00N 37°05' W 001°03'1020.3
2017-Sep-17 23:30N 37°11' W 000°53'1020.2
2017-Sep-17 23:00N 37°17' W 000°43'1220.2
2017-Sep-17 22:23N 37°24' W 000°30'1720.1
2017-Sep-17 21:33N 37°34' W 000°13'119.7
2017-Sep-17 21:30N 37°35' W 000°12'1018.9
2017-Sep-17 21:00N 37°36' E 000°00'8819.6 200 / 141016.010.8 23.4
2017-Sep-17 16:31N 38°32' E 001°26'219.5
2017-Sep-17 16:25N 38°33' E 001°28'1019.4
2017-Sep-17 15:56N 38°39' E 001°37'819.1
2017-Sep-17 15:30N 38°47' E 001°32'816.2
2017-Sep-17 14:59N 38°54' E 001°27'2 0.7
2017-Sep-17 12:00N 38°54' E 001°24'0 0.0 150 / 61019.027.0 24.0 24.6
2017-Sep-17 09:00N 38°54' E 001°24'2 1.1 110 / 31020.010.8 22.8
2017-Sep-17 06:49N 38°54' E 001°27'0 0.0
2017-Sep-17 06:28N 38°54' E 001°27'0 0.0
2017-Sep-17 05:58N 38°54' E 001°27'0 0.0
2017-Sep-17 05:28N 38°54' E 001°27'2 4.9
2017-Sep-17 05:00N 38°54' E 001°24'277.5 1014.0 2.2 23.0 24.4
2017-Sep-17 04:58N 38°54' E 001°27'0 0.3
2017-Sep-17 04:30N 38°54' E 001°27'1 2.6
2017-Sep-17 04:00N 38°54' E 001°28'2 4.7
2017-Sep-17 03:30N 38°54' E 001°31'2 4.0
2017-Sep-17 03:00N 38°53' E 001°34'6634.5
2017-Sep-17 03:00N 38°48' E 001°30'714.1 1014.0 2.2 24.0 24.2
2017-Sep-17 02:30N 38°53' E 001°36'2 3.8
2017-Sep-17 02:00N 38°53' E 001°39'2 4.1
2017-Sep-17 01:30N 38°52' E 001°41'2 3.7
2017-Sep-17 01:00N 38°52' E 001°44'2 3.9
2017-Sep-17 00:30N 38°52' E 001°46'2 3.7
2017-Sep-17 00:00N 38°52' E 001°48'6533.7
2017-Sep-17 00:00N 38°48' E 001°42'815.1 030 / 41017.010.8 21.1 24.6
2017-Sep-16 23:29N 38°53' E 001°50'2 3.7
2017-Sep-16 23:00N 38°55' E 001°51'2 3.7
2017-Sep-16 22:30N 38°56' E 001°52'2 3.4
2017-Sep-16 22:00N 38°57' E 001°54'2 3.2
2017-Sep-16 21:30N 38°58' E 001°56'2 3.7
2017-Sep-16 21:00N 38°59' E 001°56'6390.3
2017-Sep-16 21:00N 38°54' E 001°54'815.4 310 / 31014.010.8 21.7
2017-Sep-16 20:30N 39°01' E 001°57'2 3.6
2017-Sep-16 20:00N 39°03' E 001°57'2 3.6
2017-Sep-16 19:30N 39°05' E 001°57'2 3.9
2017-Sep-16 19:00N 39°07' E 001°57'2 4.2
2017-Sep-16 18:30N 39°09' E 001°57'3 6.0
2017-Sep-16 18:00N 39°12' E 001°56'1143.7
2017-Sep-16 18:00N 39°12' E 001°54'3 5.9 5.4 22.0 25.0
2017-Sep-16 17:30N 39°15' E 001°54'3 6.5
2017-Sep-16 17:00N 39°18' E 001°52'3 5.7
2017-Sep-16 16:30N 39°21' E 001°51'2 4.3
2017-Sep-16 16:00N 39°22' E 001°50'2 4.3
2017-Sep-16 15:30N 39°24' E 001°49'2 4.2
2017-Sep-16 15:00N 39°26' E 001°48'2 4.3
2017-Sep-16 14:30N 39°28' E 001°47'2 4.7
2017-Sep-16 14:00N 39°31' E 001°48'2 4.8
2017-Sep-16 13:30N 39°33' E 001°48'3 5.0
2017-Sep-16 13:00N 39°36' E 001°49'153.1
2017-Sep-16 13:00N 39°36' E 001°48'2 4.7 010 / 121014.027.0 20.9 25.0
2017-Sep-16 12:30N 39°38' E 001°49'3 5.1
2017-Sep-16 12:00N 39°41' E 001°50'3 5.1
2017-Sep-16 11:30N 39°43' E 001°50'2 5.0
2017-Sep-16 11:00N 39°46' E 001°51'2 4.9
2017-Sep-16 10:30N 39°48' E 001°51'2 5.0
2017-Sep-16 10:00N 39°50' E 001°52'2 4.9
2017-Sep-16 09:30N 39°53' E 001°53'2 4.9
2017-Sep-16 09:00N 39°55' E 001°53'4431.8
2017-Sep-16 09:00N 39°54' E 001°48'611.7 320 / 161014.010.8 19.0
2017-Sep-16 08:30N 39°58' E 001°54'2 4.9
2017-Sep-16 08:00N 40°00' E 001°54'2 4.6
2017-Sep-16 07:30N 40°03' E 001°54'2 4.6
2017-Sep-16 07:00N 40°05' E 001°55'2 4.7
2017-Sep-16 06:30N 40°07' E 001°56'2 4.7
2017-Sep-16 06:00N 40°09' E 001°56'2 4.7
2017-Sep-16 05:30N 40°12' E 001°57'2 4.6
2017-Sep-16 05:00N 40°14' E 001°57'8682.1
2017-Sep-16 05:00N 40°06' E 001°54'1121.9 340 / 151013.0 2.2 20.0 24.1
2017-Sep-16 04:30N 40°16' E 001°58'2 4.6
2017-Sep-16 04:00N 40°19' E 001°58'2 4.6
2017-Sep-16 03:30N 40°21' E 001°58'2 4.5
2017-Sep-16 03:00N 40°23' E 001°59'6683.1
2017-Sep-16 03:00N 40°18' E 001°54'816.8 290 / 101014.0 2.2 24.0 25.1
2017-Sep-16 02:30N 40°25' E 001°59'2 4.2
2017-Sep-16 02:00N 40°27' E 001°60'3230.0
2017-Sep-16 02:00N 40°24' E 002°00'510.9 030 / 61014.0 19.1
2017-Sep-16 01:30N 40°29' E 002°00'2 4.2
2017-Sep-16 01:00N 40°31' E 002°01'2 4.1
2017-Sep-16 00:30N 40°33' E 002°01'2 4.1
2017-Sep-16 00:00N 40°35' E 002°02'3 5.4
2017-Sep-15 23:30N 40°38' E 002°02'3 6.2
2017-Sep-15 23:00N 40°41' E 002°03'3 6.4
2017-Sep-15 22:31N 40°44' E 002°04'3 6.4
2017-Sep-15 22:00N 40°47' E 002°04'3296.6
2017-Sep-15 22:00N 40°48' E 002°00'5 9.3 040 / 61015.010.8 16.8
2017-Sep-15 21:30N 40°51' E 002°05'3 6.3
2017-Sep-15 21:00N 40°54' E 002°06'3 6.2
2017-Sep-15 20:30N 40°57' E 002°06'3 6.0
2017-Sep-15 20:00N 40°60' E 002°07'3 6.5
2017-Sep-15 19:30N 41°03' E 002°08'3 5.4
2017-Sep-15 19:00N 41°06' E 002°08'2 4.1
2017-Sep-15 18:30N 41°08' E 002°09'2 4.5
2017-Sep-15 18:00N 41°10' E 002°09'2 4.5
2017-Sep-15 17:31N 41°12' E 002°10'3 5.2
2017-Sep-15 17:00N 41°12' E 002°06'4349.2 050 / 101014.0 2.2 24.0 25.1
2017-Sep-15 16:59N 41°14' E 002°10'3 4.8
2017-Sep-15 16:23N 41°17' E 002°10'3 2.5
2017-Sep-15 15:00N 41°18' E 002°06'0 0.0 050 / 51013.0 2.2 24.0 24.5
2017-Sep-15 12:00N 41°18' E 002°06'0 0.0 360 / 61014.0 5.4 24.6
2017-Sep-15 09:00N 41°18' E 002°06'0 0.0 010 / 101015.0 2.2 24.6
2017-Sep-15 00:00N 41°18' E 002°06'0 0.0 020 / 51017.0 19.6 24.8
2017-Sep-14 21:00N 41°18' E 002°06'6020.0 100 / 181017.0 5.4 19.9
2017-Sep-14 18:00N 42°18' E 002°06'6010.0 110 / 131015.0 2.2 26.0 25.0
2017-Sep-14 12:00N 41°18' E 002°06'5 3.0
2017-Sep-14 10:23N 41°21' E 002°11'5 3.5
2017-Sep-14 09:00N 41°18' E 002°06'5 2.2 230 / 131016.010.8 24.1
2017-Sep-14 06:48N 41°21' E 002°11'1 2.3
2017-Sep-14 06:27N 41°21' E 002°10'2 5.3
2017-Sep-14 06:00N 41°18' E 002°10'612.6
2017-Sep-14 05:30N 41°18' E 002°19'816.5
2017-Sep-14 05:00N 41°18' E 002°30'4269.6 220 / 20 5.4 25.0 26.4
2017-Sep-14 04:59N 41°22' E 002°31'918.9
2017-Sep-14 04:30N 41°26' E 002°41'1218.8
2017-Sep-14 03:52N 41°32' E 002°55'918.5
2017-Sep-14 03:23N 41°37' E 003°05'3318.6
2017-Sep-14 01:35N 41°53' E 003°45'218.4
2017-Sep-14 01:30N 41°54' E 003°46'918.8
2017-Sep-14 01:00N 41°58' E 003°57'918.8
2017-Sep-14 00:30N 42°03' E 004°08'3 6.1
2017-Sep-14 00:00N 42°00' E 004°06'13533.3 210 / 251019.0 22.0 18.9
2017-Sep-13 23:58N 42°07' E 004°20'1718.6
2017-Sep-13 23:04N 42°15' E 004°40'318.8
2017-Sep-13 22:54N 42°17' E 004°44'818.6
2017-Sep-13 22:29N 42°21' E 004°53'918.6
2017-Sep-13 22:00N 42°25' E 005°03'918.8
2017-Sep-13 21:30N 42°30' E 005°15'3 5.0
2017-Sep-13 21:00N 42°30' E 005°18'72983.4 190 / 191018.010.8 20.1
2017-Sep-13 20:59N 42°35' E 005°26'918.5
2017-Sep-13 20:30N 42°39' E 005°36'918.5
2017-Sep-13 20:00N 42°44' E 005°47'1218.9
2017-Sep-13 19:21N 42°50' E 006°02'918.7
2017-Sep-13 18:53N 42°54' E 006°12'1820.5
2017-Sep-13 18:00N 43°00' E 006°36'1318.3 270 / 291015.0 5.4 24.0
2017-Sep-13 17:16N 43°11' E 006°45'518.7
2017-Sep-13 17:00N 43°15' E 006°50'918.8
2017-Sep-13 16:30N 43°22' E 006°58'918.8
2017-Sep-13 16:00N 43°29' E 007°07'918.9
2017-Sep-13 15:30N 43°37' E 007°15'3 0.7
2017-Sep-13 12:00N 43°36' E 007°18'0 0.0 150 / 91019.027.0 23.2 22.6
2017-Sep-13 09:00N 43°36' E 007°18'5 1.3 160 / 71019.010.8 23.3 22.6
2017-Sep-13 04:46N 43°41' E 007°19'2 5.6
2017-Sep-13 04:29N 43°40' E 007°20'4 7.2
2017-Sep-13 03:59N 43°40' E 007°25'5 8.2
2017-Sep-13 03:22N 43°41' E 007°31'514.0
2017-Sep-13 03:00N 43°36' E 007°30'3512.6 100 / 61010.0 2.2 24.0 26.1
2017-Sep-13 00:12N 43°47' E 008°16'210.9
2017-Sep-13 00:00N 43°48' E 008°19'8487.8
2017-Sep-13 00:00N 43°42' E 008°12'1324.8 030 / 10
2017-Sep-12 23:29N 43°49' E 008°27'611.0
2017-Sep-12 22:58N 43°50' E 008°35'510.9
2017-Sep-12 22:30N 43°51' E 008°41'510.9
2017-Sep-12 22:00N 43°52' E 008°49'611.1
2017-Sep-12 21:30N 43°53' E 008°56'611.1
2017-Sep-12 21:00N 43°53' E 009°04'6384.3
2017-Sep-12 21:00N 43°48' E 009°00'1021.2 180 / 131011.010.8 20.6
2017-Sep-12 20:30N 43°54' E 009°12'611.1
2017-Sep-12 20:00N 43°55' E 009°19'511.0
2017-Sep-12 19:30N 43°57' E 009°26'511.0
2017-Sep-12 19:00N 43°58' E 009°34'510.9
2017-Sep-12 18:30N 43°59' E 009°41'510.8
2017-Sep-12 18:00N 44°00' E 009°49'4 8.3
2017-Sep-12 17:30N 44°04' E 009°51'3 5.5
2017-Sep-12 17:00N 44°06' E 009°50'0 0.0
2017-Sep-12 16:30N 44°06' E 009°50'0 0.0
2017-Sep-12 16:00N 44°06' E 009°50'2127.8
2017-Sep-12 16:00N 44°06' E 009°48'2 3.3 230 / 111010.0 2.2 24.0 25.3
2017-Sep-12 15:29N 44°06' E 009°50'0 0.0
2017-Sep-12 14:59N 44°06' E 009°50'0 0.0
2017-Sep-12 14:29N 44°06' E 009°50'0 0.0
2017-Sep-12 13:59N 44°06' E 009°50'0 0.0
2017-Sep-12 13:29N 44°06' E 009°50'0 0.0
2017-Sep-12 12:59N 44°06' E 009°50'0 0.0
2017-Sep-12 12:29N 44°06' E 009°50'2 3.4
2017-Sep-12 12:00N 44°06' E 009°48'2462.4 230 / 241007.010.8 23.2 25.6
2017-Sep-12 11:59N 44°06' E 009°50'0 0.0
2017-Sep-12 11:29N 44°06' E 009°50'0 0.0
2017-Sep-12 10:58N 44°06' E 009°50'0 0.0
2017-Sep-12 10:28N 44°06' E 009°50'0 0.0
2017-Sep-12 09:55N 44°06' E 009°50'0 0.0
2017-Sep-12 09:25N 44°06' E 009°50'2 3.9
2017-Sep-12 09:00N 44°06' E 009°48'292.4 1005.0 5.4 25.7
2017-Sep-12 08:58N 44°06' E 009°50'0 0.0
2017-Sep-12 08:28N 44°06' E 009°50'0 0.0
2017-Sep-12 07:52N 44°06' E 009°50'0 0.0
2017-Sep-12 07:28N 44°06' E 009°50'0 0.0
2017-Sep-12 07:00N 44°06' E 009°50'0 0.0
2017-Sep-12 06:30N 44°06' E 009°50'0 0.0
2017-Sep-12 06:00N 44°06' E 009°50'0 0.0
2017-Sep-12 05:30N 44°06' E 009°50'0 0.1
2017-Sep-12 05:00N 44°06' E 009°50'1 1.7
2017-Sep-12 04:30N 44°06' E 009°51'4 8.2
2017-Sep-12 04:00N 44°02' E 009°54'510.3
2017-Sep-12 03:30N 43°58' E 009°58'611.4
2017-Sep-12 03:00N 43°53' E 009°60'713.2
2017-Sep-12 02:30N 43°46' E 010°02'713.7
2017-Sep-12 02:00N 43°40' E 010°05'5322.2
2017-Sep-12 02:00N 43°36' E 010°00'5 9.3 240 / 451003.0 2.2 23.0 24.1
2017-Sep-12 01:30N 43°33' E 010°05'713.6
2017-Sep-12 01:00N 43°26' E 010°05'713.4
2017-Sep-12 00:30N 43°20' E 010°04'713.3
2017-Sep-12 00:00N 43°13' E 010°04'713.3
2017-Sep-11 23:30N 43°06' E 010°04'713.5
2017-Sep-11 23:01N 42°60' E 010°04'813.8
2017-Sep-11 22:28N 42°52' E 010°03'1312.6
2017-Sep-11 21:28N 42°40' E 010°09'613.3
2017-Sep-11 21:00N 42°36' E 010°15'7472.0
2017-Sep-11 21:00N 42°36' E 010°06'1325.5 260 / 291004.010.8 24.0
2017-Sep-11 20:29N 42°32' E 010°23'713.5
2017-Sep-11 19:59N 42°28' E 010°30'5012.4
2017-Sep-11 16:00N 42°06' E 011°30'9 1.0 320 / 311000.0 2.2 25.0 23.2
2017-Sep-11 07:00N 42°06' E 011°42'0 0.0 100 / 18998.1 1.1 17.5
2017-Sep-11 04:00N 42°06' E 011°42'24 8.1 100 / 221000.0 1.1 24.0 24.0
2017-Sep-11 01:00N 41°42' E 011°48'10116.8 160 / 241001.010.8 21.4
2017-Sep-10 19:00N 40°42' E 013°36'645.3 220 / 151003.0 2.2 24.9
2017-Sep-10 18:51N 40°48' E 013°35'919.1
2017-Sep-10 18:24N 40°43' E 013°44'819.3
2017-Sep-10 18:00N 40°39' E 013°52'7434.1
2017-Sep-10 18:00N 40°36' E 014°00'4 8.2 190 / 221003.0 2.2 24.0 25.3
2017-Sep-10 17:31N 40°38' E 014°04'918.9
2017-Sep-10 17:01N 40°45' E 014°13'610.9
2017-Sep-10 16:30N 40°50' E 014°16'0 0.2
2017-Sep-10 15:52N 40°50' E 014°16'0 0.0
2017-Sep-10 15:22N 40°50' E 014°16'0 0.0
2017-Sep-10 14:52N 40°50' E 014°16'4 1.3
2017-Sep-10 12:00N 40°48' E 014°12'0 0.0 150 / 301005.0 5.4 26.2
2017-Sep-10 09:00N 40°48' E 014°12'0 0.0 160 / 201005.1 5.4 25.9
2017-Sep-10 06:00N 40°48' E 014°12'5611.4 099 1005.0 2.2 25.1
2017-Sep-10 01:03N 39°56' E 014°41'117.1
2017-Sep-10 00:59N 39°55' E 014°42'1117.2
2017-Sep-10 00:20N 39°45' E 014°48'926.9
2017-Sep-10 00:00N 39°36' E 014°48'431.8 170 / 141010.0 5.4 24.0
2017-Sep-09 23:51N 39°38' E 014°53'1017.4
2017-Sep-09 23:17N 39°29' E 014°58'517.4
2017-Sep-09 23:00N 39°24' E 015°01'2317.5
2017-Sep-09 21:42N 39°04' E 015°14'717.4
2017-Sep-09 21:20N 38°58' E 015°18'617.2
2017-Sep-09 21:00N 38°53' E 015°21'917.3
2017-Sep-09 20:31N 38°45' E 015°26'1630.2
2017-Sep-09 20:00N 38°30' E 015°30'71159.7 040 / 21010.0 23.8
2017-Sep-09 19:59N 38°37' E 015°31'817.2
2017-Sep-09 19:31N 38°30' E 015°36'917.5
2017-Sep-09 19:01N 38°22' E 015°40'813.6
2017-Sep-09 18:27N 38°14' E 015°38'818.7
2017-Sep-09 18:00N 38°06' E 015°36'918.1
2017-Sep-09 17:30N 37°57' E 015°38'1218.2
2017-Sep-09 16:49N 37°51' E 015°51'618.9
2017-Sep-09 16:31N 37°49' E 015°58'2214.3
2017-Sep-09 15:00N 37°42' E 016°24'6020.0 210 1010.0 5.4 26.2
2017-Sep-09 12:00N 37°24' E 017°36'   240 / 101012.010.8 25.0
Track history (hours):
 
Tides and Currents Weather Stations Pressure Air Temp Water Temp Dewpoint Dewpoint Depression Visibility Wind Speed Wind Dir Waves Ship Positions

Celebrity Reflection

Last reported at 2017-Sep-19 10:58 UTC. Time now 2017-Sep-19 11:20 UTC.
Position N 36°09' W 005°22'.

Length 319 m; draft 8.6 m.

Type: Passenger vessel. MMSI: 229074000.

Date/timePositionNaut miles runAvg speedWind from/ knotsBaromVisibWave heightAir tempDewpointWater temp
2017-Sep-19 10:58N 36°09' W 005°22'0 0.0
2017-Sep-19 10:29N 36°09' W 005°22'0 0.0
2017-Sep-19 09:58N 36°09' W 005°22'0 0.0
2017-Sep-19 09:28N 36°09' W 005°22'4 8.8
2017-Sep-19 09:00N 36°06' W 005°18'4189.9 140 / 61021.027.0 23.0
2017-Sep-19 08:58N 36°09' W 005°22'0 0.0
2017-Sep-19 08:27N 36°09' W 005°22'0 0.0
2017-Sep-19 08:00N 36°09' W 005°22'0 0.0
2017-Sep-19 07:30N 36°09' W 005°22'0 0.0
2017-Sep-19 07:00N 36°09' W 005°22'0 0.0
2017-Sep-19 06:27N 36°09' W 005°22'4 9.1
2017-Sep-19 06:00N 36°06' W 005°18'449.5 260 / 101017.0 2.2 20.0
2017-Sep-19 05:54N 36°09' W 005°22'0 0.0
2017-Sep-19 05:27N 36°09' W 005°22'0 0.0
2017-Sep-19 04:59N 36°09' W 005°22'0 0.0
2017-Sep-19 04:29N 36°09' W 005°22'0 0.1
2017-Sep-19 04:00N 36°09' W 005°22'2 4.0
2017-Sep-19 03:30N 36°07' W 005°23'4 7.4
2017-Sep-19 03:00N 36°06' W 005°18'4 7.3
2017-Sep-19 02:30N 36°08' W 005°14'4 7.4
2017-Sep-19 02:00N 36°09' W 005°10'18 8.8
2017-Sep-19 00:00N 36°12' W 004°48'20 6.8 250 / 281020.010.8 20.1 17.9
2017-Sep-18 21:00N 36°18' W 004°24'18 4.5 270 / 301017.010.8 20.0
2017-Sep-18 17:00N 36°36' W 004°24'6 3.0 340 / 151017.0 5.4 24.0 18.3
2017-Sep-18 15:00N 36°42' W 004°24'0 0.0 330 / 201012.0 2.2 24.0 18.2
2017-Sep-18 12:00N 36°42' W 004°24'8412.0 310 / 171019.027.0 29.2 18.5
2017-Sep-18 05:00N 36°24' W 002°42'7418.4 250 / 151017.0 5.4 22.1
2017-Sep-18 01:00N 36°54' W 001°18'1315.5 250 / 191017.010.8 23.3 25.3
2017-Sep-18 00:09N 37°03' W 001°07'320.1
2017-Sep-18 00:00N 37°05' W 001°03'1020.3
2017-Sep-17 23:30N 37°11' W 000°53'1020.2
2017-Sep-17 23:00N 37°17' W 000°43'1220.2
2017-Sep-17 22:23N 37°24' W 000°30'1720.1
2017-Sep-17 21:33N 37°34' W 000°13'119.7
2017-Sep-17 21:30N 37°35' W 000°12'1018.9
2017-Sep-17 21:00N 37°36' E 000°00'8819.6 200 / 141016.010.8 23.4
2017-Sep-17 16:31N 38°32' E 001°26'219.5
2017-Sep-17 16:25N 38°33' E 001°28'1019.4
2017-Sep-17 15:56N 38°39' E 001°37'819.1
2017-Sep-17 15:30N 38°47' E 001°32'816.2
2017-Sep-17 14:59N 38°54' E 001°27'2 0.7
2017-Sep-17 12:00N 38°54' E 001°24'0 0.0 150 / 61019.027.0 24.0 24.6
2017-Sep-17 09:00N 38°54' E 001°24'2 1.1 110 / 31020.010.8 22.8
2017-Sep-17 06:49N 38°54' E 001°27'0 0.0
2017-Sep-17 06:28N 38°54' E 001°27'0 0.0
2017-Sep-17 05:58N 38°54' E 001°27'0 0.0
2017-Sep-17 05:28N 38°54' E 001°27'2 4.9
2017-Sep-17 05:00N 38°54' E 001°24'277.5 1014.0 2.2 23.0 24.4
2017-Sep-17 04:58N 38°54' E 001°27'0 0.3
2017-Sep-17 04:30N 38°54' E 001°27'1 2.6
2017-Sep-17 04:00N 38°54' E 001°28'2 4.7
2017-Sep-17 03:30N 38°54' E 001°31'2 4.0
2017-Sep-17 03:00N 38°53' E 001°34'6634.5
2017-Sep-17 03:00N 38°48' E 001°30'714.1 1014.0 2.2 24.0 24.2
2017-Sep-17 02:30N 38°53' E 001°36'2 3.8
2017-Sep-17 02:00N 38°53' E 001°39'2 4.1
2017-Sep-17 01:30N 38°52' E 001°41'2 3.7
2017-Sep-17 01:00N 38°52' E 001°44'2 3.9
2017-Sep-17 00:30N 38°52' E 001°46'2 3.7
2017-Sep-17 00:00N 38°52' E 001°48'6533.7
2017-Sep-17 00:00N 38°48' E 001°42'815.1 030 / 41017.010.8 21.1 24.6
2017-Sep-16 23:29N 38°53' E 001°50'2 3.7
2017-Sep-16 23:00N 38°55' E 001°51'2 3.7
2017-Sep-16 22:30N 38°56' E 001°52'2 3.4
2017-Sep-16 22:00N 38°57' E 001°54'2 3.2
2017-Sep-16 21:30N 38°58' E 001°56'2 3.7
2017-Sep-16 21:00N 38°59' E 001°56'6390.3
2017-Sep-16 21:00N 38°54' E 001°54'815.4 310 / 31014.010.8 21.7
2017-Sep-16 20:30N 39°01' E 001°57'2 3.6
2017-Sep-16 20:00N 39°03' E 001°57'2 3.6
2017-Sep-16 19:30N 39°05' E 001°57'2 3.9
2017-Sep-16 19:00N 39°07' E 001°57'2 4.2
2017-Sep-16 18:30N 39°09' E 001°57'3 6.0
2017-Sep-16 18:00N 39°12' E 001°56'1143.7
2017-Sep-16 18:00N 39°12' E 001°54'3 5.9 5.4 22.0 25.0
2017-Sep-16 17:30N 39°15' E 001°54'3 6.5
2017-Sep-16 17:00N 39°18' E 001°52'3 5.7
2017-Sep-16 16:30N 39°21' E 001°51'2 4.3
2017-Sep-16 16:00N 39°22' E 001°50'2 4.3
2017-Sep-16 15:30N 39°24' E 001°49'2 4.2
2017-Sep-16 15:00N 39°26' E 001°48'2 4.3
2017-Sep-16 14:30N 39°28' E 001°47'2 4.7
2017-Sep-16 14:00N 39°31' E 001°48'2 4.8
2017-Sep-16 13:30N 39°33' E 001°48'3 5.0
2017-Sep-16 13:00N 39°36' E 001°49'153.1
2017-Sep-16 13:00N 39°36' E 001°48'2 4.7 010 / 121014.027.0 20.9 25.0
2017-Sep-16 12:30N 39°38' E 001°49'3 5.1
2017-Sep-16 12:00N 39°41' E 001°50'3 5.1
2017-Sep-16 11:30N 39°43' E 001°50'2 5.0
2017-Sep-16 11:00N 39°46' E 001°51'2 4.9
2017-Sep-16 10:30N 39°48' E 001°51'2 5.0
2017-Sep-16 10:00N 39°50' E 001°52'2 4.9
2017-Sep-16 09:30N 39°53' E 001°53'2 4.9
2017-Sep-16 09:00N 39°55' E 001°53'4431.8
2017-Sep-16 09:00N 39°54' E 001°48'611.7 320 / 161014.010.8 19.0
2017-Sep-16 08:30N 39°58' E 001°54'2 4.9
2017-Sep-16 08:00N 40°00' E 001°54'2 4.6
2017-Sep-16 07:30N 40°03' E 001°54'2 4.6
2017-Sep-16 07:00N 40°05' E 001°55'2 4.7
2017-Sep-16 06:30N 40°07' E 001°56'2 4.7
2017-Sep-16 06:00N 40°09' E 001°56'2 4.7
2017-Sep-16 05:30N 40°12' E 001°57'2 4.6
2017-Sep-16 05:00N 40°14' E 001°57'8682.1
2017-Sep-16 05:00N 40°06' E 001°54'1121.9 340 / 151013.0 2.2 20.0 24.1
2017-Sep-16 04:30N 40°16' E 001°58'2 4.6
2017-Sep-16 04:00N 40°19' E 001°58'2 4.6
2017-Sep-16 03:30N 40°21' E 001°58'2 4.5
2017-Sep-16 03:00N 40°23' E 001°59'6683.1
2017-Sep-16 03:00N 40°18' E 001°54'816.8 290 / 101014.0 2.2 24.0 25.1
2017-Sep-16 02:30N 40°25' E 001°59'2 4.2
2017-Sep-16 02:00N 40°27' E 001°60'3230.0
2017-Sep-16 02:00N 40°24' E 002°00'510.9 030 / 61014.0 19.1
2017-Sep-16 01:30N 40°29' E 002°00'2 4.2
2017-Sep-16 01:00N 40°31' E 002°01'2 4.1
2017-Sep-16 00:30N 40°33' E 002°01'2 4.1
2017-Sep-16 00:00N 40°35' E 002°02'3 5.4
2017-Sep-15 23:30N 40°38' E 002°02'3 6.2
2017-Sep-15 23:00N 40°41' E 002°03'3 6.4
2017-Sep-15 22:31N 40°44' E 002°04'3 6.4
2017-Sep-15 22:00N 40°47' E 002°04'3296.6
2017-Sep-15 22:00N 40°48' E 002°00'5 9.3 040 / 61015.010.8 16.8
2017-Sep-15 21:30N 40°51' E 002°05'3 6.3
2017-Sep-15 21:00N 40°54' E 002°06'3 6.2
2017-Sep-15 20:30N 40°57' E 002°06'3 6.0
2017-Sep-15 20:00N 40°60' E 002°07'3 6.5
2017-Sep-15 19:30N 41°03' E 002°08'3 5.4
2017-Sep-15 19:00N 41°06' E 002°08'2 4.1
2017-Sep-15 18:30N 41°08' E 002°09'2 4.5
2017-Sep-15 18:00N 41°10' E 002°09'2 4.5
2017-Sep-15 17:31N 41°12' E 002°10'3 5.2
2017-Sep-15 17:00N 41°12' E 002°06'4349.2 050 / 101014.0 2.2 24.0 25.1
2017-Sep-15 16:59N 41°14' E 002°10'3 4.8
2017-Sep-15 16:23N 41°17' E 002°10'3 2.5
2017-Sep-15 15:00N 41°18' E 002°06'0 0.0 050 / 51013.0 2.2 24.0 24.5
2017-Sep-15 12:00N 41°18' E 002°06'0 0.0 360 / 61014.0 5.4 24.6
2017-Sep-15 09:00N 41°18' E 002°06'0 0.0 010 / 101015.0 2.2 24.6
2017-Sep-15 00:00N 41°18' E 002°06'0 0.0 020 / 51017.0 19.6 24.8
2017-Sep-14 21:00N 41°18' E 002°06'6020.0 100 / 181017.0 5.4 19.9
2017-Sep-14 18:00N 42°18' E 002°06'6010.0 110 / 131015.0 2.2 26.0 25.0
2017-Sep-14 12:00N 41°18' E 002°06'5 3.0
2017-Sep-14 10:23N 41°21' E 002°11'5 3.5
2017-Sep-14 09:00N 41°18' E 002°06'5 2.2 230 / 131016.010.8 24.1
2017-Sep-14 06:48N 41°21' E 002°11'1 2.3
2017-Sep-14 06:27N 41°21' E 002°10'2 5.3
2017-Sep-14 06:00N 41°18' E 002°10'612.6
2017-Sep-14 05:30N 41°18' E 002°19'816.5
2017-Sep-14 05:00N 41°18' E 002°30'4269.6 220 / 20 5.4 25.0 26.4
2017-Sep-14 04:59N 41°22' E 002°31'918.9
2017-Sep-14 04:30N 41°26' E 002°41'1218.8
2017-Sep-14 03:52N 41°32' E 002°55'918.5
2017-Sep-14 03:23N 41°37' E 003°05'3318.6
2017-Sep-14 01:35N 41°53' E 003°45'218.4
2017-Sep-14 01:30N 41°54' E 003°46'918.8
2017-Sep-14 01:00N 41°58' E 003°57'918.8
2017-Sep-14 00:30N 42°03' E 004°08'3 6.1
2017-Sep-14 00:00N 42°00' E 004°06'13533.3 210 / 251019.0 22.0 18.9
2017-Sep-13 23:58N 42°07' E 004°20'1718.6
2017-Sep-13 23:04N 42°15' E 004°40'318.8
2017-Sep-13 22:54N 42°17' E 004°44'818.6
2017-Sep-13 22:29N 42°21' E 004°53'918.6
2017-Sep-13 22:00N 42°25' E 005°03'918.8
2017-Sep-13 21:30N 42°30' E 005°15'3 5.0
2017-Sep-13 21:00N 42°30' E 005°18'72983.4 190 / 191018.010.8 20.1
2017-Sep-13 20:59N 42°35' E 005°26'918.5
2017-Sep-13 20:30N 42°39' E 005°36'918.5
2017-Sep-13 20:00N 42°44' E 005°47'1218.9
2017-Sep-13 19:21N 42°50' E 006°02'918.7
2017-Sep-13 18:53N 42°54' E 006°12'1820.5
2017-Sep-13 18:00N 43°00' E 006°36'1318.3 270 / 291015.0 5.4 24.0
2017-Sep-13 17:16N 43°11' E 006°45'518.7
2017-Sep-13 17:00N 43°15' E 006°50'918.8
2017-Sep-13 16:30N 43°22' E 006°58'918.8
2017-Sep-13 16:00N 43°29' E 007°07'918.9
2017-Sep-13 15:30N 43°37' E 007°15'3 0.7
2017-Sep-13 12:00N 43°36' E 007°18'0 0.0 150 / 91019.027.0 23.2 22.6
2017-Sep-13 09:00N 43°36' E 007°18'5 1.3 160 / 71019.010.8 23.3 22.6
2017-Sep-13 04:46N 43°41' E 007°19'2 5.6
2017-Sep-13 04:29N 43°40' E 007°20'4 7.2
2017-Sep-13 03:59N 43°40' E 007°25'5 8.2
2017-Sep-13 03:22N 43°41' E 007°31'514.0
2017-Sep-13 03:00N 43°36' E 007°30'3512.6 100 / 61010.0 2.2 24.0 26.1
2017-Sep-13 00:12N 43°47' E 008°16'210.9
2017-Sep-13 00:00N 43°48' E 008°19'8487.8
2017-Sep-13 00:00N 43°42' E 008°12'1324.8 030 / 10
2017-Sep-12 23:29N 43°49' E 008°27'611.0
2017-Sep-12 22:58N 43°50' E 008°35'510.9
2017-Sep-12 22:30N 43°51' E 008°41'510.9
2017-Sep-12 22:00N 43°52' E 008°49'611.1
2017-Sep-12 21:30N 43°53' E 008°56'611.1
2017-Sep-12 21:00N 43°53' E 009°04'6384.3
2017-Sep-12 21:00N 43°48' E 009°00'1021.2 180 / 131011.010.8 20.6
2017-Sep-12 20:30N 43°54' E 009°12'611.1
2017-Sep-12 20:00N 43°55' E 009°19'511.0
2017-Sep-12 19:30N 43°57' E 009°26'511.0
2017-Sep-12 19:00N 43°58' E 009°34'510.9
2017-Sep-12 18:30N 43°59' E 009°41'510.8
2017-Sep-12 18:00N 44°00' E 009°49'4 8.3
2017-Sep-12 17:30N 44°04' E 009°51'3 5.5
2017-Sep-12 17:00N 44°06' E 009°50'0 0.0
2017-Sep-12 16:30N 44°06' E 009°50'0 0.0
2017-Sep-12 16:00N 44°06' E 009°50'2127.8
2017-Sep-12 16:00N 44°06' E 009°48'2 3.3 230 / 111010.0 2.2 24.0 25.3
2017-Sep-12 15:29N 44°06' E 009°50'0 0.0
2017-Sep-12 14:59N 44°06' E 009°50'0 0.0
2017-Sep-12 14:29N 44°06' E 009°50'0 0.0
2017-Sep-12 13:59N 44°06' E 009°50'0 0.0
2017-Sep-12 13:29N 44°06' E 009°50'0 0.0
2017-Sep-12 12:59N 44°06' E 009°50'0 0.0
2017-Sep-12 12:29N 44°06' E 009°50'2 3.4
2017-Sep-12 12:00N 44°06' E 009°48'2462.4 230 / 241007.010.8 23.2 25.6
2017-Sep-12 11:59N 44°06' E 009°50'0 0.0
2017-Sep-12 11:29N 44°06' E 009°50'0 0.0
2017-Sep-12 10:58N 44°06' E 009°50'0 0.0
2017-Sep-12 10:28N 44°06' E 009°50'0 0.0
2017-Sep-12 09:55N 44°06' E 009°50'0 0.0
2017-Sep-12 09:25N 44°06' E 009°50'2 3.9
2017-Sep-12 09:00N 44°06' E 009°48'292.4 1005.0 5.4 25.7
2017-Sep-12 08:58N 44°06' E 009°50'0 0.0
2017-Sep-12 08:28N 44°06' E 009°50'0 0.0
2017-Sep-12 07:52N 44°06' E 009°50'0 0.0
2017-Sep-12 07:28N 44°06' E 009°50'0 0.0
2017-Sep-12 07:00N 44°06' E 009°50'0 0.0
2017-Sep-12 06:30N 44°06' E 009°50'0 0.0
2017-Sep-12 06:00N 44°06' E 009°50'0 0.0
2017-Sep-12 05:30N 44°06' E 009°50'0 0.1
2017-Sep-12 05:00N 44°06' E 009°50'1 1.7
2017-Sep-12 04:30N 44°06' E 009°51'4 8.2
2017-Sep-12 04:00N 44°02' E 009°54'510.3
2017-Sep-12 03:30N 43°58' E 009°58'611.4
2017-Sep-12 03:00N 43°53' E 009°60'713.2
2017-Sep-12 02:30N 43°46' E 010°02'713.7
2017-Sep-12 02:00N 43°40' E 010°05'5322.2
2017-Sep-12 02:00N 43°36' E 010°00'5 9.3 240 / 451003.0 2.2 23.0 24.1
2017-Sep-12 01:30N 43°33' E 010°05'713.6
2017-Sep-12 01:00N 43°26' E 010°05'713.4
2017-Sep-12 00:30N 43°20' E 010°04'713.3
2017-Sep-12 00:00N 43°13' E 010°04'713.3
2017-Sep-11 23:30N 43°06' E 010°04'713.5
2017-Sep-11 23:01N 42°60' E 010°04'813.8
2017-Sep-11 22:28N 42°52' E 010°03'1312.6
2017-Sep-11 21:28N 42°40' E 010°09'613.3
2017-Sep-11 21:00N 42°36' E 010°15'7472.0
2017-Sep-11 21:00N 42°36' E 010°06'1325.5 260 / 291004.010.8 24.0
2017-Sep-11 20:29N 42°32' E 010°23'713.5
2017-Sep-11 19:59N 42°28' E 010°30'5012.4
2017-Sep-11 16:00N 42°06' E 011°30'9 1.0 320 / 311000.0 2.2 25.0 23.2
2017-Sep-11 07:00N 42°06' E 011°42'0 0.0 100 / 18998.1 1.1 17.5
2017-Sep-11 04:00N 42°06' E 011°42'24 8.1 100 / 221000.0 1.1 24.0 24.0
2017-Sep-11 01:00N 41°42' E 011°48'10116.8 160 / 241001.010.8 21.4
2017-Sep-10 19:00N 40°42' E 013°36'645.3 220 / 151003.0 2.2 24.9
2017-Sep-10 18:51N 40°48' E 013°35'919.1
2017-Sep-10 18:24N 40°43' E 013°44'819.3
2017-Sep-10 18:00N 40°39' E 013°52'7434.1
2017-Sep-10 18:00N 40°36' E 014°00'4 8.2 190 / 221003.0 2.2 24.0 25.3
2017-Sep-10 17:31N 40°38' E 014°04'918.9
2017-Sep-10 17:01N 40°45' E 014°13'610.9
2017-Sep-10 16:30N 40°50' E 014°16'0 0.2
2017-Sep-10 15:52N 40°50' E 014°16'0 0.0
2017-Sep-10 15:22N 40°50' E 014°16'0 0.0
2017-Sep-10 14:52N 40°50' E 014°16'4 1.3
2017-Sep-10 12:00N 40°48' E 014°12'0 0.0 150 / 301005.0 5.4 26.2
2017-Sep-10 09:00N 40°48' E 014°12'0 0.0 160 / 201005.1 5.4 25.9
2017-Sep-10 06:00N 40°48' E 014°12'5611.4 099 1005.0 2.2 25.1
2017-Sep-10 01:03N 39°56' E 014°41'117.1
2017-Sep-10 00:59N 39°55' E 014°42'1117.2
2017-Sep-10 00:20N 39°45' E 014°48'926.9
2017-Sep-10 00:00N 39°36' E 014°48'431.8 170 / 141010.0 5.4 24.0
2017-Sep-09 23:51N 39°38' E 014°53'1017.4
2017-Sep-09 23:17N 39°29' E 014°58'517.4
2017-Sep-09 23:00N 39°24' E 015°01'2317.5
2017-Sep-09 21:42N 39°04' E 015°14'717.4
2017-Sep-09 21:20N 38°58' E 015°18'617.2
2017-Sep-09 21:00N 38°53' E 015°21'917.3
2017-Sep-09 20:31N 38°45' E 015°26'1630.2
2017-Sep-09 20:00N 38°30' E 015°30'71159.7 040 / 21010.0 23.8
2017-Sep-09 19:59N 38°37' E 015°31'817.2
2017-Sep-09 19:31N 38°30' E 015°36'917.5
2017-Sep-09 19:01N 38°22' E 015°40'813.6
2017-Sep-09 18:27N 38°14' E 015°38'818.7
2017-Sep-09 18:00N 38°06' E 015°36'918.1
2017-Sep-09 17:30N 37°57' E 015°38'1218.2
2017-Sep-09 16:49N 37°51' E 015°51'618.9
2017-Sep-09 16:31N 37°49' E 015°58'2214.3
2017-Sep-09 15:00N 37°42' E 016°24'6020.0 210 1010.0 5.4 26.2
2017-Sep-09 12:00N 37°24' E 017°36'   240 / 101012.010.8 25.0

Dump ship's entire track history